sensor_id;sensor_type;location;lat;lon;timestamp;pressure;altitude;pressure_sealevel;temperature;humidity
75036;BME280;64247;51.540;5.854;2023-05-23T00:00:05;101507.84;;;14.54;100.00
75036;BME280;64247;51.540;5.854;2023-05-23T00:02:27;101491.28;;;14.63;100.00
75036;BME280;64247;51.540;5.854;2023-05-23T00:04:28;101513.84;;;14.60;100.00
75036;BME280;64247;51.540;5.854;2023-05-23T00:06:30;101505.97;;;14.58;100.00
75036;BME280;64247;51.540;5.854;2023-05-23T00:08:31;101513.31;;;14.54;100.00
75036;BME280;64247;51.540;5.854;2023-05-23T00:10:31;101504.31;;;14.53;100.00
75036;BME280;64247;51.540;5.854;2023-05-23T00:12:32;101511.81;;;14.56;100.00
75036;BME280;64247;51.540;5.854;2023-05-23T00:14:33;101516.81;;;14.54;100.00
75036;BME280;64247;51.540;5.854;2023-05-23T00:16:34;101521.50;;;14.54;100.00
75036;BME280;64247;51.540;5.854;2023-05-23T00:18:40;101523.34;;;14.50;100.00
75036;BME280;64247;51.540;5.854;2023-05-23T00:20:43;101515.59;;;14.52;100.00
75036;BME280;64247;51.540;5.854;2023-05-23T00:22:44;101521.06;;;14.52;100.00
75036;BME280;64247;51.540;5.854;2023-05-23T00:24:47;101510.50;;;14.50;100.00
75036;BME280;64247;51.540;5.854;2023-05-23T00:26:48;101509.34;;;14.51;100.00
75036;BME280;64247;51.540;5.854;2023-05-23T00:28:49;101514.72;;;14.48;100.00
75036;BME280;64247;51.540;5.854;2023-05-23T00:30:50;101510.91;;;14.52;100.00
75036;BME280;64247;51.540;5.854;2023-05-23T00:32:52;101508.09;;;14.49;100.00
75036;BME280;64247;51.540;5.854;2023-05-23T00:34:55;101517.09;;;14.49;100.00
75036;BME280;64247;51.540;5.854;2023-05-23T00:36:55;101518.78;;;14.54;100.00
75036;BME280;64247;51.540;5.854;2023-05-23T00:38:57;101518.78;;;14.54;100.00
75036;BME280;64247;51.540;5.854;2023-05-23T00:40:58;101523.78;;;14.52;100.00
75036;BME280;64247;51.540;5.854;2023-05-23T00:43:01;101519.09;;;14.52;100.00
75036;BME280;64247;51.540;5.854;2023-05-23T00:45:02;101521.84;;;14.52;100.00
75036;BME280;64247;51.540;5.854;2023-05-23T00:47:06;101521.59;;;14.57;100.00
75036;BME280;64247;51.540;5.854;2023-05-23T00:49:08;101527.31;;;14.52;100.00
75036;BME280;64247;51.540;5.854;2023-05-23T00:51:09;101529.44;;;14.59;100.00
75036;BME280;64247;51.540;5.854;2023-05-23T00:53:11;101527.06;;;14.57;100.00
75036;BME280;64247;51.540;5.854;2023-05-23T00:55:13;101518.41;;;14.55;100.00
75036;BME280;64247;51.540;5.854;2023-05-23T00:57:16;101528.97;;;14.57;100.00
75036;BME280;64247;51.540;5.854;2023-05-23T00:59:18;101535.06;;;14.50;100.00
75036;BME280;64247;51.540;5.854;2023-05-23T01:01:22;101534.63;;;14.48;100.00
75036;BME280;64247;51.540;5.854;2023-05-23T01:03:23;101539.31;;;14.48;100.00
75036;BME280;64247;51.540;5.854;2023-05-23T01:05:27;101529.84;;;14.45;100.00
75036;BME280;64247;51.540;5.854;2023-05-23T01:07:28;101541.59;;;14.46;100.00
75036;BME280;64247;51.540;5.854;2023-05-23T01:09:30;101542.72;;;14.45;100.00
75036;BME280;64247;51.540;5.854;2023-05-23T01:11:36;101542.28;;;14.43;100.00
75036;BME280;64247;51.540;5.854;2023-05-23T01:14:10;101541.50;;;14.42;100.00
75036;BME280;64247;51.540;5.854;2023-05-23T01:17:10;101541.13;;;14.44;100.00
75036;BME280;64247;51.540;5.854;2023-05-23T01:19:27;101540.69;;;14.41;100.00
75036;BME280;64247;51.540;5.854;2023-05-23T01:21:41;101534.16;;;14.46;100.00
75036;BME280;64247;51.540;5.854;2023-05-23T01:29:56;101533.81;;;14.32;100.00
75036;BME280;64247;51.540;5.854;2023-05-23T01:32:04;101529.84;;;14.29;100.00
75036;BME280;64247;51.540;5.854;2023-05-23T01:34:11;101543.41;;;14.25;100.00
75036;BME280;64247;51.540;5.854;2023-05-23T01:36:14;101547.94;;;14.21;100.00
75036;BME280;64247;51.540;5.854;2023-05-23T01:38:15;101540.47;;;14.18;100.00
75036;BME280;64247;51.540;5.854;2023-05-23T01:40:16;101524.09;;;14.18;100.00
75036;BME280;64247;51.540;5.854;2023-05-23T01:42:17;101543.66;;;14.20;100.00
75036;BME280;64247;51.540;5.854;2023-05-23T01:44:18;101548.75;;;14.22;100.00
75036;BME280;64247;51.540;5.854;2023-05-23T01:46:22;101547.72;;;14.27;100.00
75036;BME280;64247;51.540;5.854;2023-05-23T01:48:27;101554.78;;;14.28;100.00
75036;BME280;64247;51.540;5.854;2023-05-23T01:50:29;101553.09;;;14.23;100.00
75036;BME280;64247;51.540;5.854;2023-05-23T01:52:32;101554.91;;;14.19;100.00
75036;BME280;64247;51.540;5.854;2023-05-23T01:54:36;101565.03;;;14.18;100.00
75036;BME280;64247;51.540;5.854;2023-05-23T01:56:39;101554.59;;;14.20;100.00
75036;BME280;64247;51.540;5.854;2023-05-23T01:58:42;101562.78;;;14.20;100.00
75036;BME280;64247;51.540;5.854;2023-05-23T02:00:44;101550.25;;;14.19;100.00
75036;BME280;64247;51.540;5.854;2023-05-23T02:02:45;101563.09;;;14.19;100.00
75036;BME280;64247;51.540;5.854;2023-05-23T02:04:48;101564.25;;;14.18;100.00
75036;BME280;64247;51.540;5.854;2023-05-23T02:06:49;101569.69;;;14.18;100.00
75036;BME280;64247;51.540;5.854;2023-05-23T02:08:50;101576.31;;;14.17;100.00
75036;BME280;64247;51.540;5.854;2023-05-23T02:10:51;101578.59;;;14.15;100.00
75036;BME280;64247;51.540;5.854;2023-05-23T02:12:51;101574.97;;;14.11;100.00
75036;BME280;64247;51.540;5.854;2023-05-23T02:14:53;101581.50;;;14.06;100.00
75036;BME280;64247;51.540;5.854;2023-05-23T02:16:54;101573.31;;;14.06;100.00
75036;BME280;64247;51.540;5.854;2023-05-23T02:18:55;101584.22;;;14.06;100.00
75036;BME280;64247;51.540;5.854;2023-05-23T02:20:57;101592.63;;;14.01;100.00
75036;BME280;64247;51.540;5.854;2023-05-23T02:22:57;101597.22;;;13.97;100.00
75036;BME280;64247;51.540;5.854;2023-05-23T02:24:58;101585.38;;;13.92;100.00
75036;BME280;64247;51.540;5.854;2023-05-23T02:26:59;101587.69;;;13.90;100.00
75036;BME280;64247;51.540;5.854;2023-05-23T02:29:00;101588.34;;;13.87;100.00
75036;BME280;64247;51.540;5.854;2023-05-23T02:31:01;101594.16;;;13.86;100.00
75036;BME280;64247;51.540;5.854;2023-05-23T02:33:05;101587.34;;;13.80;100.00
75036;BME280;64247;51.540;5.854;2023-05-23T02:35:07;101588.81;;;13.77;100.00
75036;BME280;64247;51.540;5.854;2023-05-23T02:37:09;101585.66;;;13.75;100.00
75036;BME280;64247;51.540;5.854;2023-05-23T02:39:11;101583.25;;;13.73;100.00
75036;BME280;64247;51.540;5.854;2023-05-23T02:41:13;101580.00;;;13.68;100.00
75036;BME280;64247;51.540;5.854;2023-05-23T02:43:14;101590.44;;;13.66;100.00
75036;BME280;64247;51.540;5.854;2023-05-23T02:45:16;101585.66;;;13.63;100.00
75036;BME280;64247;51.540;5.854;2023-05-23T02:47:17;101584.88;;;13.62;100.00
75036;BME280;64247;51.540;5.854;2023-05-23T02:49:18;101586.38;;;13.59;100.00
75036;BME280;64247;51.540;5.854;2023-05-23T02:51:19;101585.91;;;13.57;100.00
75036;BME280;64247;51.540;5.854;2023-05-23T02:53:20;101589.00;;;13.56;100.00
75036;BME280;64247;51.540;5.854;2023-05-23T02:55:22;101599.44;;;13.54;100.00
75036;BME280;64247;51.540;5.854;2023-05-23T02:57:24;101591.25;;;13.54;100.00
75036;BME280;64247;51.540;5.854;2023-05-23T02:59:26;101591.47;;;13.49;100.00
75036;BME280;64247;51.540;5.854;2023-05-23T03:01:27;101596.50;;;13.47;100.00
75036;BME280;64247;51.540;5.854;2023-05-23T03:03:28;101596.13;;;13.48;100.00
75036;BME280;64247;51.540;5.854;2023-05-23T03:05:30;101592.75;;;13.51;100.00
75036;BME280;64247;51.540;5.854;2023-05-23T03:07:31;101591.94;;;13.51;100.00
75036;BME280;64247;51.540;5.854;2023-05-23T03:09:33;101592.03;;;13.54;100.00
75036;BME280;64247;51.540;5.854;2023-05-23T03:11:35;101589.19;;;13.51;100.00
75036;BME280;64247;51.540;5.854;2023-05-23T03:13:36;101591.81;;;13.47;100.00
75036;BME280;64247;51.540;5.854;2023-05-23T03:15:37;101593.31;;;13.44;100.00
75036;BME280;64247;51.540;5.854;2023-05-23T03:17:38;101590.34;;;13.50;100.00
75036;BME280;64247;51.540;5.854;2023-05-23T03:19:39;101604.78;;;13.50;100.00
75036;BME280;64247;51.540;5.854;2023-05-23T03:21:39;101607.06;;;13.48;100.00
75036;BME280;64247;51.540;5.854;2023-05-23T03:23:41;101606.69;;;13.50;100.00
75036;BME280;64247;51.540;5.854;2023-05-23T03:25:42;101596.72;;;13.54;100.00
75036;BME280;64247;51.540;5.854;2023-05-23T03:27:43;101599.78;;;13.52;100.00
75036;BME280;64247;51.540;5.854;2023-05-23T03:29:44;101613.63;;;13.47;100.00
75036;BME280;64247;51.540;5.854;2023-05-23T03:31:45;101605.09;;;13.49;100.00
75036;BME280;64247;51.540;5.854;2023-05-23T03:33:45;101618.44;;;13.50;100.00
75036;BME280;64247;51.540;5.854;2023-05-23T03:35:46;101610.44;;;13.45;100.00
75036;BME280;64247;51.540;5.854;2023-05-23T03:37:47;101617.75;;;13.41;100.00
75036;BME280;64247;51.540;5.854;2023-05-23T03:39:48;101602.00;;;13.38;100.00
75036;BME280;64247;51.540;5.854;2023-05-23T03:41:49;101618.50;;;13.29;100.00
75036;BME280;64247;51.540;5.854;2023-05-23T03:43:50;101614.75;;;13.21;100.00
75036;BME280;64247;51.540;5.854;2023-05-23T03:45:51;101618.94;;;13.19;100.00
75036;BME280;64247;51.540;5.854;2023-05-23T03:47:52;101619.28;;;13.17;100.00
75036;BME280;64247;51.540;5.854;2023-05-23T03:49:53;101608.63;;;13.12;100.00
75036;BME280;64247;51.540;5.854;2023-05-23T03:51:54;101631.09;;;13.09;100.00
75036;BME280;64247;51.540;5.854;2023-05-23T03:53:55;101626.31;;;13.06;100.00
75036;BME280;64247;51.540;5.854;2023-05-23T03:55:56;101622.22;;;12.99;100.00
75036;BME280;64247;51.540;5.854;2023-05-23T03:57:57;101619.84;;;12.98;100.00
75036;BME280;64247;51.540;5.854;2023-05-23T03:59:58;101624.81;;;12.96;100.00
75036;BME280;64247;51.540;5.854;2023-05-23T04:02:00;101625.59;;;12.84;100.00
75036;BME280;64247;51.540;5.854;2023-05-23T04:04:00;101635.34;;;12.85;100.00
75036;BME280;64247;51.540;5.854;2023-05-23T04:06:06;101621.28;;;12.83;100.00
75036;BME280;64247;51.540;5.854;2023-05-23T04:08:08;101620.81;;;12.81;100.00
75036;BME280;64247;51.540;5.854;2023-05-23T04:10:09;101623.22;;;12.82;100.00
75036;BME280;64247;51.540;5.854;2023-05-23T04:12:10;101625.25;;;12.86;100.00
75036;BME280;64247;51.540;5.854;2023-05-23T04:14:12;101628.44;;;12.88;100.00
75036;BME280;64247;51.540;5.854;2023-05-23T04:16:13;101622.91;;;12.96;100.00
75036;BME280;64247;51.540;5.854;2023-05-23T04:18:15;101628.00;;;12.98;100.00
75036;BME280;64247;51.540;5.854;2023-05-23T04:20:17;101635.50;;;13.01;100.00
75036;BME280;64247;51.540;5.854;2023-05-23T04:22:18;101635.75;;;13.08;100.00
75036;BME280;64247;51.540;5.854;2023-05-23T04:24:20;101628.81;;;13.11;100.00
75036;BME280;64247;51.540;5.854;2023-05-23T04:26:21;101640.97;;;13.13;100.00
75036;BME280;64247;51.540;5.854;2023-05-23T04:28:26;101645.75;;;13.17;100.00
75036;BME280;64247;51.540;5.854;2023-05-23T04:30:29;101636.56;;;13.21;100.00
75036;BME280;64247;51.540;5.854;2023-05-23T04:32:30;101647.13;;;13.23;100.00
75036;BME280;64247;51.540;5.854;2023-05-23T04:34:32;101646.69;;;13.33;100.00
75036;BME280;64247;51.540;5.854;2023-05-23T04:36:33;101647.13;;;13.35;100.00
75036;BME280;64247;51.540;5.854;2023-05-23T04:38:37;101652.72;;;13.39;100.00
75036;BME280;64247;51.540;5.854;2023-05-23T04:40:40;101657.50;;;13.42;100.00
75036;BME280;64247;51.540;5.854;2023-05-23T04:43:00;101649.78;;;13.44;100.00
75036;BME280;64247;51.540;5.854;2023-05-23T04:45:12;101659.66;;;13.49;100.00
75036;BME280;64247;51.540;5.854;2023-05-23T04:47:31;101665.56;;;13.51;100.00
75036;BME280;64247;51.540;5.854;2023-05-23T04:49:38;101657.75;;;13.49;100.00
75036;BME280;64247;51.540;5.854;2023-05-23T04:51:39;101664.34;;;13.48;100.00
75036;BME280;64247;51.540;5.854;2023-05-23T04:54:00;101676.03;;;13.49;100.00
75036;BME280;64247;51.540;5.854;2023-05-23T04:56:01;101671.25;;;13.45;100.00
75036;BME280;64247;51.540;5.854;2023-05-23T04:58:03;101671.84;;;13.51;100.00
75036;BME280;64247;51.540;5.854;2023-05-23T05:00:05;101672.38;;;13.57;100.00
75036;BME280;64247;51.540;5.854;2023-05-23T05:02:12;101673.31;;;13.61;100.00
75036;BME280;64247;51.540;5.854;2023-05-23T05:04:13;101669.78;;;13.60;100.00
75036;BME280;64247;51.540;5.854;2023-05-23T05:06:15;101670.59;;;13.61;100.00
75036;BME280;64247;51.540;5.854;2023-05-23T05:08:16;101674.91;;;13.62;100.00
75036;BME280;64247;51.540;5.854;2023-05-23T05:10:19;101672.19;;;13.62;100.00
75036;BME280;64247;51.540;5.854;2023-05-23T05:12:21;101671.38;;;13.61;100.00
75036;BME280;64247;51.540;5.854;2023-05-23T05:14:21;101678.66;;;13.57;100.00
75036;BME280;64247;51.540;5.854;2023-05-23T05:16:22;101673.88;;;13.54;100.00
75036;BME280;64247;51.540;5.854;2023-05-23T05:18:27;101672.16;;;13.50;100.00
75036;BME280;64247;51.540;5.854;2023-05-23T05:20:30;101686.63;;;13.50;100.00
75036;BME280;64247;51.540;5.854;2023-05-23T05:22:31;101678.31;;;13.47;100.00
75036;BME280;64247;51.540;5.854;2023-05-23T05:24:33;101673.66;;;13.47;100.00
75036;BME280;64247;51.540;5.854;2023-05-23T05:26:34;101686.72;;;13.54;100.00
75036;BME280;64247;51.540;5.854;2023-05-23T05:28:36;101692.31;;;13.57;100.00
75036;BME280;64247;51.540;5.854;2023-05-23T05:30:38;101689.78;;;13.65;100.00
75036;BME280;64247;51.540;5.854;2023-05-23T05:32:39;101696.16;;;13.69;100.00
75036;BME280;64247;51.540;5.854;2023-05-23T05:34:41;101705.63;;;13.71;100.00
75036;BME280;64247;51.540;5.854;2023-05-23T05:36:43;101694.69;;;13.71;100.00
75036;BME280;64247;51.540;5.854;2023-05-23T05:38:49;101697.44;;;13.71;100.00
75036;BME280;64247;51.540;5.854;2023-05-23T05:40:53;101703.78;;;13.75;100.00
75036;BME280;64247;51.540;5.854;2023-05-23T05:42:54;101701.50;;;13.77;100.00
75036;BME280;64247;51.540;5.854;2023-05-23T05:44:56;101706.97;;;13.77;100.00
75036;BME280;64247;51.540;5.854;2023-05-23T05:46:57;101707.28;;;13.76;100.00
75036;BME280;64247;51.540;5.854;2023-05-23T05:48:58;101715.47;;;13.76;100.00
75036;BME280;64247;51.540;5.854;2023-05-23T05:51:00;101697.53;;;13.75;100.00
75036;BME280;64247;51.540;5.854;2023-05-23T05:53:05;101717.19;;;13.68;100.00
75036;BME280;64247;51.540;5.854;2023-05-23T05:55:09;101714.91;;;13.58;100.00
75036;BME280;64247;51.540;5.854;2023-05-23T05:57:17;101703.31;;;13.49;100.00
75036;BME280;64247;51.540;5.854;2023-05-23T05:59:18;101724.88;;;13.41;100.00
75036;BME280;64247;51.540;5.854;2023-05-23T06:01:19;101725.31;;;13.31;100.00
75036;BME280;64247;51.540;5.854;2023-05-23T06:03:20;101712.09;;;13.21;100.00
75036;BME280;64247;51.540;5.854;2023-05-23T06:05:28;101716.53;;;13.13;100.00
75036;BME280;64247;51.540;5.854;2023-05-23T06:07:30;101722.84;;;13.05;100.00
75036;BME280;64247;51.540;5.854;2023-05-23T06:09:31;101721.91;;;13.01;100.00
75036;BME280;64247;51.540;5.854;2023-05-23T06:11:32;101738.72;;;12.90;100.00
75036;BME280;64247;51.540;5.854;2023-05-23T06:13:33;101739.72;;;12.86;100.00
75036;BME280;64247;51.540;5.854;2023-05-23T06:15:34;101738.44;;;12.83;100.00
75036;BME280;64247;51.540;5.854;2023-05-23T06:17:36;101740.03;;;12.84;100.00
75036;BME280;64247;51.540;5.854;2023-05-23T06:19:37;101740.84;;;12.85;100.00
75036;BME280;64247;51.540;5.854;2023-05-23T06:21:38;101742.31;;;12.82;100.00
75036;BME280;64247;51.540;5.854;2023-05-23T06:23:41;101757.41;;;12.79;100.00
75036;BME280;64247;51.540;5.854;2023-05-23T06:25:42;101751.34;;;12.74;100.00
75036;BME280;64247;51.540;5.854;2023-05-23T06:27:43;101750.53;;;12.73;100.00
75036;BME280;64247;51.540;5.854;2023-05-23T06:29:45;101755.84;;;12.70;100.00
75036;BME280;64247;51.540;5.854;2023-05-23T06:31:46;101736.78;;;12.70;100.00
75036;BME280;64247;51.540;5.854;2023-05-23T06:33:47;101753.25;;;12.73;100.00
75036;BME280;64247;51.540;5.854;2023-05-23T06:35:48;101757.06;;;12.81;100.00
75036;BME280;64247;51.540;5.854;2023-05-23T06:37:49;101746.28;;;12.85;100.00
75036;BME280;64247;51.540;5.854;2023-05-23T06:39:50;101761.50;;;12.86;100.00
75036;BME280;64247;51.540;5.854;2023-05-23T06:41:53;101760.69;;;12.85;100.00
75036;BME280;64247;51.540;5.854;2023-05-23T06:43:54;101777.38;;;12.83;100.00
75036;BME280;64247;51.540;5.854;2023-05-23T06:45:59;101767.75;;;12.86;100.00
75036;BME280;64247;51.540;5.854;2023-05-23T06:48:03;101771.06;;;12.92;100.00
75036;BME280;64247;51.540;5.854;2023-05-23T06:50:06;101777.91;;;12.98;100.00
75036;BME280;64247;51.540;5.854;2023-05-23T06:52:07;101772.56;;;13.02;100.00
75036;BME280;64247;51.540;5.854;2023-05-23T06:54:08;101780.09;;;13.05;100.00
75036;BME280;64247;51.540;5.854;2023-05-23T06:56:11;101782.84;;;13.17;100.00
75036;BME280;64247;51.540;5.854;2023-05-23T06:58:23;101785.97;;;13.28;100.00
75036;BME280;64247;51.540;5.854;2023-05-23T07:00:27;101784.88;;;13.41;100.00
75036;BME280;64247;51.540;5.854;2023-05-23T07:02:36;101782.09;;;13.50;100.00
75036;BME280;64247;51.540;5.854;2023-05-23T07:04:40;101779.81;;;13.52;100.00
75036;BME280;64247;51.540;5.854;2023-05-23T07:06:48;101792.19;;;13.50;100.00
75036;BME280;64247;51.540;5.854;2023-05-23T07:08:49;101790.34;;;13.41;100.00
75036;BME280;64247;51.540;5.854;2023-05-23T07:10:50;101793.94;;;13.33;100.00
75036;BME280;64247;51.540;5.854;2023-05-23T07:13:02;101800.41;;;13.28;100.00
75036;BME280;64247;51.540;5.854;2023-05-23T07:15:04;101797.22;;;13.26;100.00
75036;BME280;64247;51.540;5.854;2023-05-23T07:17:05;101802.88;;;13.21;100.00
75036;BME280;64247;51.540;5.854;2023-05-23T07:19:07;101809.34;;;13.17;100.00
75036;BME280;64247;51.540;5.854;2023-05-23T07:21:15;101806.13;;;13.14;100.00
75036;BME280;64247;51.540;5.854;2023-05-23T07:23:16;101810.47;;;13.16;100.00
75036;BME280;64247;51.540;5.854;2023-05-23T07:25:18;101813.31;;;13.19;100.00
75036;BME280;64247;51.540;5.854;2023-05-23T07:27:19;101801.84;;;13.26;100.00
75036;BME280;64247;51.540;5.854;2023-05-23T07:29:20;101814.47;;;13.30;100.00
75036;BME280;64247;51.540;5.854;2023-05-23T07:31:22;101808.84;;;13.36;99.74
75036;BME280;64247;51.540;5.854;2023-05-23T07:33:26;101811.38;;;13.41;97.91
75036;BME280;64247;51.540;5.854;2023-05-23T07:35:32;101807.28;;;13.47;95.13
75036;BME280;64247;51.540;5.854;2023-05-23T07:37:34;101807.75;;;13.49;96.24
75036;BME280;64247;51.540;5.854;2023-05-23T07:39:35;101810.84;;;13.60;96.45
75036;BME280;64247;51.540;5.854;2023-05-23T07:41:37;101805.41;;;13.72;94.83
75036;BME280;64247;51.540;5.854;2023-05-23T07:43:39;101814.09;;;13.87;91.45
75036;BME280;64247;51.540;5.854;2023-05-23T07:45:40;101814.44;;;13.98;90.61
75036;BME280;64247;51.540;5.854;2023-05-23T07:47:41;101814.44;;;14.10;89.95
75036;BME280;64247;51.540;5.854;2023-05-23T07:49:42;101815.47;;;14.30;90.38
75036;BME280;64247;51.540;5.854;2023-05-23T07:51:44;101822.72;;;14.51;87.92
75036;BME280;64247;51.540;5.854;2023-05-23T07:53:45;101827.97;;;14.68;87.36
75036;BME280;64247;51.540;5.854;2023-05-23T07:55:47;101824.16;;;14.85;82.44
75036;BME280;64247;51.540;5.854;2023-05-23T07:57:48;101829.47;;;14.94;81.82
75036;BME280;64247;51.540;5.854;2023-05-23T07:59:50;101825.38;;;15.00;80.55
75036;BME280;64247;51.540;5.854;2023-05-23T08:01:52;101824.44;;;15.09;80.00
75036;BME280;64247;51.540;5.854;2023-05-23T08:03:55;101833.88;;;15.40;79.96
75036;BME280;64247;51.540;5.854;2023-05-23T08:06:03;101818.28;;;15.72;77.42
75036;BME280;64247;51.540;5.854;2023-05-23T08:08:04;101829.25;;;15.88;77.85
75036;BME280;64247;51.540;5.854;2023-05-23T08:10:05;101842.53;;;16.02;79.39
75036;BME280;64247;51.540;5.854;2023-05-23T08:12:08;101829.84;;;16.29;74.57
75036;BME280;64247;51.540;5.854;2023-05-23T08:14:09;101835.94;;;16.39;72.04
75036;BME280;64247;51.540;5.854;2023-05-23T08:16:30;101835.94;;;16.39;72.11
75036;BME280;64247;51.540;5.854;2023-05-23T08:18:31;101837.78;;;16.51;74.97
75036;BME280;64247;51.540;5.854;2023-05-23T08:20:32;101845.34;;;16.57;74.95
75036;BME280;64247;51.540;5.854;2023-05-23T08:22:33;101845.63;;;16.52;73.67
75036;BME280;64247;51.540;5.854;2023-05-23T08:24:34;101847.50;;;16.48;73.15
75036;BME280;64247;51.540;5.854;2023-05-23T08:26:35;101856.16;;;16.50;73.78
75036;BME280;64247;51.540;5.854;2023-05-23T08:28:39;101841.81;;;16.57;73.28
75036;BME280;64247;51.540;5.854;2023-05-23T08:30:40;101854.84;;;16.44;74.17
75036;BME280;64247;51.540;5.854;2023-05-23T08:32:42;101843.66;;;16.33;75.53
75036;BME280;64247;51.540;5.854;2023-05-23T08:34:43;101853.72;;;16.29;75.15
75036;BME280;64247;51.540;5.854;2023-05-23T08:36:43;101844.88;;;16.36;76.24
75036;BME280;64247;51.540;5.854;2023-05-23T08:38:49;101852.19;;;16.48;73.98
75036;BME280;64247;51.540;5.854;2023-05-23T08:41:01;101854.47;;;16.45;74.32
75036;BME280;64247;51.540;5.854;2023-05-23T08:43:03;101849.53;;;16.51;76.27
75036;BME280;64247;51.540;5.854;2023-05-23T08:45:05;101853.56;;;16.57;73.59
75036;BME280;64247;51.540;5.854;2023-05-23T08:47:07;101854.38;;;16.58;73.87
75036;BME280;64247;51.540;5.854;2023-05-23T08:49:21;101856.25;;;16.54;75.64
75036;BME280;64247;51.540;5.854;2023-05-23T08:51:24;101862.78;;;16.49;74.33
75036;BME280;64247;51.540;5.854;2023-05-23T08:53:27;101843.19;;;16.47;74.09
75036;BME280;64247;51.540;5.854;2023-05-23T08:55:38;101852.56;;;16.46;73.99
75036;BME280;64247;51.540;5.854;2023-05-23T08:57:40;101862.38;;;16.47;72.81
75036;BME280;64247;51.540;5.854;2023-05-23T09:00:04;101857.59;;;16.44;75.29
75036;BME280;64247;51.540;5.854;2023-05-23T09:02:10;101866.44;;;16.37;76.53
75036;BME280;64247;51.540;5.854;2023-05-23T09:04:12;101868.66;;;16.32;76.29
75036;BME280;64247;51.540;5.854;2023-05-23T09:06:39;101877.78;;;16.20;76.48
75036;BME280;64247;51.540;5.854;2023-05-23T09:08:40;101883.34;;;16.23;76.42
75036;BME280;64247;51.540;5.854;2023-05-23T09:10:42;101878.97;;;16.38;77.76
75036;BME280;64247;51.540;5.854;2023-05-23T09:12:45;101872.97;;;16.49;76.92
75036;BME280;64247;51.540;5.854;2023-05-23T09:14:47;101880.91;;;16.54;75.71
75036;BME280;64247;51.540;5.854;2023-05-23T09:16:48;101880.91;;;16.54;75.18
75036;BME280;64247;51.540;5.854;2023-05-23T09:18:51;101894.06;;;16.48;75.90
75036;BME280;64247;51.540;5.854;2023-05-23T09:20:54;101883.19;;;16.52;76.88
75036;BME280;64247;51.540;5.854;2023-05-23T09:22:55;101889.56;;;16.56;76.28
75036;BME280;64247;51.540;5.854;2023-05-23T09:24:56;101888.34;;;16.53;74.25
75036;BME280;64247;51.540;5.854;2023-05-23T09:26:57;101889.13;;;16.54;75.33
75036;BME280;64247;51.540;5.854;2023-05-23T09:28:58;101895.38;;;16.70;75.30
75036;BME280;64247;51.540;5.854;2023-05-23T09:31:00;101894.81;;;16.97;73.85
75036;BME280;64247;51.540;5.854;2023-05-23T09:33:04;101892.88;;;17.17;74.20
75036;BME280;64247;51.540;5.854;2023-05-23T09:35:07;101884.84;;;17.28;72.66
75036;BME280;64247;51.540;5.854;2023-05-23T09:37:12;101891.69;;;17.37;70.95
75036;BME280;64247;51.540;5.854;2023-05-23T09:39:18;101895.09;;;17.50;68.63
75036;BME280;64247;51.540;5.854;2023-05-23T09:41:19;101891.63;;;17.53;65.81
75036;BME280;64247;51.540;5.854;2023-05-23T09:43:21;101895.72;;;17.63;67.42
75036;BME280;64247;51.540;5.854;2023-05-23T09:45:29;101890.81;;;17.72;65.98
75036;BME280;64247;51.540;5.854;2023-05-23T09:47:30;101900.38;;;17.82;64.61
75036;BME280;64247;51.540;5.854;2023-05-23T09:49:31;101891.00;;;17.83;62.14
75036;BME280;64247;51.540;5.854;2023-05-23T09:51:32;101897.41;;;17.91;60.67
75036;BME280;64247;51.540;5.854;2023-05-23T09:53:34;101900.50;;;17.90;61.04
75036;BME280;64247;51.540;5.854;2023-05-23T09:55:35;101901.34;;;17.94;61.44
75036;BME280;64247;51.540;5.854;2023-05-23T09:57:40;101893.31;;;17.81;63.43
75036;BME280;64247;51.540;5.854;2023-05-23T09:59:48;101903.31;;;17.70;65.27
75036;BME280;64247;51.540;5.854;2023-05-23T10:01:56;101880.66;;;17.53;65.29
75036;BME280;64247;51.540;5.854;2023-05-23T10:03:58;101900.16;;;17.48;66.60
75036;BME280;64247;51.540;5.854;2023-05-23T10:06:07;101906.00;;;17.47;66.92
75036;BME280;64247;51.540;5.854;2023-05-23T10:08:36;101890.88;;;17.56;66.12
75036;BME280;64247;51.540;5.854;2023-05-23T10:13:26;101905.97;;;17.66;64.57
75036;BME280;64247;51.540;5.854;2023-05-23T10:15:33;101882.78;;;17.64;60.20
75036;BME280;64247;51.540;5.854;2023-05-23T10:18:05;101905.50;;;17.41;60.30
75036;BME280;64247;51.540;5.854;2023-05-23T10:20:15;101907.28;;;17.14;60.11
75036;BME280;64247;51.540;5.854;2023-05-23T10:22:20;101912.28;;;17.08;61.21
75036;BME280;64247;51.540;5.854;2023-05-23T10:24:23;101906.88;;;17.12;61.90
75036;BME280;64247;51.540;5.854;2023-05-23T10:26:26;101897.78;;;17.27;60.96
75036;BME280;64247;51.540;5.854;2023-05-23T10:28:27;101912.72;;;17.49;61.31
75036;BME280;64247;51.540;5.854;2023-05-23T10:30:28;101888.59;;;17.59;60.14
75036;BME280;64247;51.540;5.854;2023-05-23T10:32:30;101905.50;;;17.61;63.31
75036;BME280;64247;51.540;5.854;2023-05-23T10:37:32;101904.28;;;17.38;63.32
75036;BME280;64247;51.540;5.854;2023-05-23T10:42:58;101871.78;;;17.40;63.21
75036;BME280;64247;51.540;5.854;2023-05-23T10:45:22;101909.31;;;17.56;63.68
75036;BME280;64247;51.540;5.854;2023-05-23T10:47:27;101909.16;;;17.68;60.10
75036;BME280;64247;51.540;5.854;2023-05-23T10:49:48;101916.22;;;17.69;60.64
75036;BME280;64247;51.540;5.854;2023-05-23T10:51:53;101917.31;;;17.84;60.56
75036;BME280;64247;51.540;5.854;2023-05-23T10:53:54;101907.31;;;17.96;59.52